Time;durP1;ratioP1;P1;durP2;ratioP2;P2;SDS_P1;SDS_P2;PMS_P1;PMS_P2;Temp;Humidity;BMP_temperature;BMP_pressure;BME280_temperature;BME280_humidity;BME280_pressure;Samples;Min_cycle;Max_cycle;Signal;HPM_P1;HPM_P2
2022/03/14 00:01:50;;;;;;;14.23;10.65;;;10.70;66.10;;;;;;4915622;29;20517;-68
2022/03/14 00:04:17;;;;;;;14.27;10.38;;;10.70;65.80;;;;;;4921615;29;20054;-68
2022/03/14 00:06:49;;;;;;;16.98;10.63;;;10.70;65.80;;;;;;4915294;29;20162;-68
2022/03/14 00:09:18;;;;;;;13.75;9.45;;;10.60;66.50;;;;;;4920969;29;20508;-69
2022/03/14 00:11:45;;;;;;;16.58;10.07;;;10.70;66.30;;;;;;4930385;29;20048;-69
2022/03/14 00:14:12;;;;;;;13.65;9.82;;;10.70;66.60;;;;;;4930551;29;20048;-69
2022/03/14 00:16:42;;;;;;;15.68;10.75;;;10.70;66.70;;;;;;4920426;29;20060;-69
2022/03/14 00:19:08;;;;;;;15.15;10.27;;;10.70;67.10;;;;;;4917758;29;20047;-69
2022/03/14 00:21:41;;;;;;;12.57;9.75;;;10.60;67.50;;;;;;4923636;29;20119;-69
2022/03/14 00:24:09;;;;;;;11.75;9.30;;;10.60;67.60;;;;;;4925692;29;20047;-67
2022/03/14 00:26:35;;;;;;;12.18;9.05;;;10.60;68.20;;;;;;4930156;29;20095;-67
2022/03/14 00:29:01;;;;;;;13.93;8.60;;;10.60;68.30;;;;;;4929732;29;20048;-68
2022/03/14 00:31:28;;;;;;;12.27;8.75;;;10.50;68.80;;;;;;4922652;29;20044;-67
2022/03/14 00:33:53;;;;;;;13.35;9.55;;;10.50;68.60;;;;;;4932544;29;20059;-68
2022/03/14 00:36:19;;;;;;;12.15;8.30;;;10.50;69.10;;;;;;4927046;29;20047;-68
2022/03/14 00:38:46;;;;;;;12.88;9.60;;;10.50;69.00;;;;;;4933273;29;20078;-69
2022/03/14 00:41:12;;;;;;;13.40;9.18;;;10.50;69.00;;;;;;4921580;29;20144;-69
2022/03/14 00:43:38;;;;;;;14.00;9.40;;;10.50;69.30;;;;;;4933275;29;20075;-69
2022/03/14 00:46:04;;;;;;;16.27;9.68;;;10.50;69.30;;;;;;4923148;29;20500;-68
2022/03/14 00:48:35;;;;;;;12.75;9.57;;;10.50;69.40;;;;;;4932404;29;20063;-70
2022/03/14 00:51:02;;;;;;;11.77;8.77;;;10.40;69.70;;;;;;4914911;29;20048;-68
2022/03/14 00:53:28;;;;;;;12.13;8.77;;;10.40;69.80;;;;;;4921998;29;20366;-69
2022/03/14 00:55:54;;;;;;;11.68;8.40;;;10.30;70.00;;;;;;4920160;29;20043;-69
2022/03/14 00:58:19;;;;;;;11.85;8.73;;;10.30;70.20;;;;;;4912543;29;20074;-69
2022/03/14 01:00:47;;;;;;;11.07;8.25;;;10.30;70.20;;;;;;4921341;29;20040;-69
2022/03/14 01:03:12;;;;;;;8.38;6.10;;;10.30;70.50;;;;;;4921271;29;20040;-69
2022/03/14 01:05:38;;;;;;;8.68;6.80;;;10.20;70.80;;;;;;4924741;29;20050;-69
2022/03/14 01:08:06;;;;;;;12.02;7.47;;;10.20;70.80;;;;;;4922528;29;20315;-69
2022/03/14 01:10:32;;;;;;;10.70;7.68;;;10.20;71.00;;;;;;4923251;29;20047;-68
2022/03/14 01:12:58;;;;;;;8.68;6.38;;;10.30;71.10;;;;;;4924449;29;20051;-69
2022/03/14 01:15:24;;;;;;;9.02;6.93;;;10.30;71.30;;;;;;4921677;29;20031;-69
2022/03/14 01:17:50;;;;;;;10.77;7.80;;;10.30;71.40;;;;;;4930619;29;20062;-69
2022/03/14 01:20:16;;;;;;;8.20;6.47;;;10.30;71.60;;;;;;4925236;29;20155;-69
2022/03/14 01:22:43;;;;;;;10.13;6.78;;;10.30;71.60;;;;;;4925281;29;20625;-69
2022/03/14 01:25:09;;;;;;;11.50;6.63;;;10.30;71.70;;;;;;4924703;29;20355;-69
2022/03/14 01:27:35;;;;;;;9.95;6.95;;;10.30;71.90;;;;;;4923855;29;20044;-69
2022/03/14 01:30:01;;;;;;;8.55;6.97;;;10.30;72.10;;;;;;4922996;29;20035;-67
2022/03/14 01:32:26;;;;;;;8.27;6.78;;;10.30;72.00;;;;;;4925310;29;20540;-68
2022/03/14 01:34:52;;;;;;;7.68;6.03;;;10.20;72.30;;;;;;4881212;29;20059;-68
2022/03/14 01:37:18;;;;;;;9.75;7.13;;;10.20;72.40;;;;;;4916941;29;20538;-68
2022/03/14 01:39:44;;;;;;;9.13;7.00;;;10.20;72.50;;;;;;4920310;29;20119;-68
2022/03/14 01:42:18;;;;;;;10.27;7.22;;;10.10;72.40;;;;;;4919061;29;20051;-68
2022/03/14 01:44:46;;;;;;;10.63;7.80;;;10.20;72.50;;;;;;4931086;29;20067;-68
2022/03/14 01:47:13;;;;;;;15.05;9.68;;;10.10;72.50;;;;;;4928000;29;20064;-68
2022/03/14 01:49:39;;;;;;;11.90;8.30;;;10.10;72.50;;;;;;4915954;29;20524;-70
2022/03/14 01:52:07;;;;;;;11.82;8.45;;;10.10;72.60;;;;;;4930090;29;20094;-69
2022/03/14 01:54:34;;;;;;;11.80;8.48;;;10.20;72.60;;;;;;4912021;29;20497;-69
2022/03/14 01:56:59;;;;;;;13.60;8.35;;;10.20;72.60;;;;;;4931550;29;20412;-69
2022/03/14 01:59:26;;;;;;;12.95;8.73;;;10.10;72.80;;;;;;4930798;29;20035;-68
2022/03/14 02:01:52;;;;;;;14.40;9.88;;;10.10;72.80;;;;;;4918417;29;20056;-69
2022/03/14 02:04:18;;;;;;;13.30;9.30;;;10.10;72.80;;;;;;4912476;29;20074;-68
2022/03/14 02:06:46;;;;;;;14.80;10.88;;;10.10;72.70;;;;;;4913132;29;20076;-68
2022/03/14 02:09:12;;;;;;;15.32;11.40;;;10.20;72.70;;;;;;4923792;29;20531;-69
2022/03/14 02:11:38;;;;;;;18.40;12.88;;;10.20;72.60;;;;;;4914782;29;20040;-68
2022/03/14 02:14:06;;;;;;;16.02;11.98;;;10.20;72.50;;;;;;4923899;29;20128;-68
2022/03/14 02:16:31;;;;;;;14.18;11.52;;;10.10;72.50;;;;;;4912211;29;20488;-69
2022/03/14 02:18:57;;;;;;;14.40;11.38;;;10.10;72.50;;;;;;4923303;29;20400;-70
2022/03/14 02:21:23;;;;;;;16.52;11.68;;;10.10;72.40;;;;;;4912742;29;20136;-68
2022/03/14 02:23:48;;;;;;;15.55;12.10;;;10.10;72.50;;;;;;4920856;29;20055;-69
2022/03/14 02:26:14;;;;;;;19.70;13.73;;;10.10;72.60;;;;;;4931213;29;20054;-70
2022/03/14 02:28:39;;;;;;;17.02;13.57;;;10.10;72.80;;;;;;4929739;29;20044;-68
2022/03/14 02:31:06;;;;;;;19.60;13.40;;;10.10;72.80;;;;;;4926823;29;20429;-69
2022/03/14 02:33:32;;;;;;;17.17;14.02;;;10.10;72.80;;;;;;4912492;29;20083;-68
2022/03/14 02:35:58;;;;;;;20.85;14.80;;;10.10;72.70;;;;;;4931300;29;20074;-69
2022/03/14 02:38:24;;;;;;;17.95;14.93;;;10.10;72.70;;;;;;4926167;29;20493;-69
2022/03/14 02:40:49;;;;;;;20.45;14.40;;;10.10;72.70;;;;;;4930490;29;20447;-69
2022/03/14 02:43:24;;;;;;;22.10;14.02;;;10.10;72.70;;;;;;4930438;29;20046;-69
2022/03/14 02:45:51;;;;;;;19.35;15.70;;;10.10;72.80;;;;;;4926757;29;20048;-68
2022/03/14 02:48:18;;;;;;;19.23;14.77;;;10.10;72.70;;;;;;4929992;29;20056;-70
2022/03/14 02:50:44;;;;;;;20.40;14.70;;;10.10;72.70;;;;;;4928132;29;20119;-69
2022/03/14 02:53:11;;;;;;;19.60;15.13;;;10.10;72.60;;;;;;4934417;29;20490;-69
2022/03/14 02:55:37;;;;;;;21.42;15.30;;;10.10;72.70;;;;;;4919647;29;20043;-69
2022/03/14 02:58:03;;;;;;;17.17;13.52;;;10.10;72.80;;;;;;4916786;29;20044;-68
2022/03/14 03:00:29;;;;;;;18.95;13.60;;;10.10;72.90;;;;;;4930840;29;20509;-69
2022/03/14 03:02:55;;;;;;;16.95;13.25;;;10.00;73.00;;;;;;4916282;29;20054;-70
2022/03/14 03:05:21;;;;;;;18.17;14.23;;;10.00;73.10;;;;;;4933049;29;20055;-69
2022/03/14 03:07:48;;;;;;;15.63;12.57;;;10.00;73.30;;;;;;4916663;29;20070;-68
2022/03/14 03:10:23;;;;;;;18.58;14.07;;;10.00;73.30;;;;;;4931868;29;20123;-68
2022/03/14 03:12:49;;;;;;;18.05;13.15;;;10.00;73.20;;;;;;4917290;29;20123;-68
2022/03/14 03:15:15;;;;;;;14.30;11.55;;;10.00;73.20;;;;;;4930021;29;20047;-68
2022/03/14 03:17:41;;;;;;;15.30;10.95;;;10.00;73.40;;;;;;4918627;29;20501;-69
2022/03/14 03:20:08;;;;;;;15.35;11.48;;;10.00;73.50;;;;;;4932322;29;20054;-70
2022/03/14 03:22:34;;;;;;;17.58;11.60;;;10.10;73.50;;;;;;4932354;29;20075;-69
2022/03/14 03:25:00;;;;;;;14.05;10.77;;;10.00;73.60;;;;;;4924715;29;20079;-68
2022/03/14 03:27:25;;;;;;;12.75;9.90;;;10.00;73.80;;;;;;4929973;29;20052;-68
2022/03/14 03:29:51;;;;;;;17.25;9.95;;;10.00;74.00;;;;;;4924810;29;20044;-68
2022/03/14 03:32:17;;;;;;;10.93;8.95;;;10.10;74.10;;;;;;4929170;29;20102;-69
2022/03/14 03:34:42;;;;;;;13.35;9.43;;;10.10;74.10;;;;;;4929901;29;20039;-69
2022/03/14 03:37:08;;;;;;;11.73;9.60;;;10.10;74.10;;;;;;4916828;29;20054;-69
2022/03/14 03:39:33;;;;;;;13.52;9.02;;;10.10;74.20;;;;;;4929336;29;20446;-69
2022/03/14 03:41:59;;;;;;;9.68;7.70;;;10.10;74.40;;;;;;4922797;29;20036;-69
2022/03/14 03:44:25;;;;;;;9.57;7.93;;;10.00;74.50;;;;;;4932160;29;20040;-69
2022/03/14 03:46:50;;;;;;;12.95;7.45;;;10.10;74.50;;;;;;4934245;29;20107;-68
2022/03/14 03:49:16;;;;;;;8.15;7.05;;;10.10;74.60;;;;;;4929490;29;20485;-69
2022/03/14 03:51:41;;;;;;;10.10;7.30;;;10.10;74.70;;;;;;4923829;29;20051;-69
2022/03/14 03:54:07;;;;;;;8.63;7.25;;;10.00;74.80;;;;;;4931237;29;20420;-68
2022/03/14 03:56:34;;;;;;;9.13;6.82;;;10.10;74.90;;;;;;4926292;29;20046;-69
2022/03/14 03:58:59;;;;;;;10.45;6.70;;;10.10;75.00;;;;;;4923102;29;20099;-69
2022/03/14 04:01:26;;;;;;;7.93;6.13;;;10.00;75.20;;;;;;4917684;29;20075;-68
2022/03/14 04:03:54;;;;;;;8.90;6.05;;;10.00;75.20;;;;;;4927881;29;20059;-69
2022/03/14 04:06:26;;;;;;;8.30;5.78;;;10.00;75.20;;;;;;4926996;29;20051;-69
2022/03/14 04:08:52;;;;;;;7.07;5.68;;;10.10;75.30;;;;;;4916102;29;20509;-69
2022/03/14 04:11:19;;;;;;;4.72;4.18;;;10.10;75.40;;;;;;4929955;29;20047;-70
2022/03/14 04:13:45;;;;;;;5.25;3.90;;;10.10;75.30;;;;;;4933252;29;20424;-69
2022/03/14 04:16:11;;;;;;;4.63;3.60;;;10.10;75.40;;;;;;4915378;29;20051;-69
2022/03/14 04:18:37;;;;;;;4.22;3.15;;;10.10;75.40;;;;;;4915912;29;20120;-69
2022/03/14 04:21:03;;;;;;;5.03;3.30;;;10.10;75.40;;;;;;4918977;29;20047;-69
2022/03/14 04:23:31;;;;;;;4.68;3.95;;;10.10;75.50;;;;;;4915788;29;20511;-69
2022/03/14 04:25:57;;;;;;;3.95;3.20;;;10.10;75.50;;;;;;4925682;29;20055;-69
2022/03/14 04:28:23;;;;;;;3.80;3.00;;;10.10;75.40;;;;;;4932782;29;20051;-69
2022/03/14 04:30:49;;;;;;;5.15;3.20;;;10.10;75.50;;;;;;4919132;29;20044;-68
2022/03/14 04:33:14;;;;;;;4.47;3.53;;;10.10;75.60;;;;;;4919772;29;20046;-68
2022/03/14 04:35:40;;;;;;;5.22;3.72;;;10.10;75.80;;;;;;4930221;29;20472;-68
2022/03/14 04:38:07;;;;;;;5.07;4.00;;;10.10;75.80;;;;;;4928900;29;20047;-68
2022/03/14 04:40:34;;;;;;;4.32;3.40;;;10.10;75.90;;;;;;4919174;29;20571;-68
2022/03/14 04:43:07;;;;;;;5.53;3.10;;;10.10;76.00;;;;;;4932459;29;20539;-69
2022/03/14 04:45:34;;;;;;;4.45;3.15;;;10.00;76.20;;;;;;4919124;29;20124;-69
2022/03/14 04:47:59;;;;;;;4.50;3.03;;;10.00;76.00;;;;;;4915668;29;20115;-68
2022/03/14 04:50:25;;;;;;;3.65;3.08;;;10.00;76.10;;;;;;4931402;29;20055;-68
2022/03/14 04:52:52;;;;;;;3.70;2.67;;;10.00;76.00;;;;;;4930789;29;20523;-68
2022/03/14 04:55:17;;;;;;;3.10;2.25;;;10.00;76.00;;;;;;4914956;29;20059;-68
2022/03/14 04:57:43;;;;;;;3.30;2.70;;;9.90;76.50;;;;;;4921352;29;20047;-68
2022/03/14 05:00:09;;;;;;;3.90;2.58;;;10.00;76.30;;;;;;4930019;29;20042;-68
2022/03/14 05:02:35;;;;;;;3.70;2.38;;;10.00;76.50;;;;;;4917049;29;20047;-67
2022/03/14 05:05:01;;;;;;;2.97;2.08;;;10.00;76.40;;;;;;4928086;29;20504;-69
2022/03/14 05:07:26;;;;;;;3.22;2.47;;;10.00;76.30;;;;;;4922307;29;20032;-69
2022/03/14 05:09:52;;;;;;;2.72;2.40;;;10.00;76.40;;;;;;4932131;29;20048;-69
2022/03/14 05:12:19;;;;;;;4.45;2.25;;;9.90;76.80;;;;;;4915440;29;20623;-69
2022/03/14 05:14:44;;;;;;;3.22;2.50;;;10.00;76.80;;;;;;4931143;29;20489;-68
2022/03/14 05:17:10;;;;;;;3.58;2.90;;;9.90;76.70;;;;;;4922801;29;20040;-69
2022/03/14 05:19:36;;;;;;;2.83;2.10;;;9.90;76.70;;;;;;4931418;29;20048;-69
2022/03/14 05:22:03;;;;;;;3.42;2.63;;;9.90;76.70;;;;;;4921643;29;20131;-68
2022/03/14 05:24:29;;;;;;;3.95;2.42;;;9.90;76.70;;;;;;4919861;29;20105;-68
2022/03/14 05:26:57;;;;;;;3.97;2.63;;;10.00;76.70;;;;;;4913685;29;20604;-68
2022/03/14 05:29:23;;;;;;;3.28;2.50;;;9.90;76.60;;;;;;4917376;29;20051;-67
2022/03/14 05:31:49;;;;;;;3.33;2.60;;;9.90;76.70;;;;;;4931274;29;20055;-67
2022/03/14 05:34:14;;;;;;;3.20;2.70;;;10.00;76.70;;;;;;4928199;29;20046;-67
2022/03/14 05:36:40;;;;;;;2.85;2.42;;;9.90;76.90;;;;;;4923145;29;20099;-68
2022/03/14 05:39:06;;;;;;;3.38;2.42;;;9.90;76.90;;;;;;4929912;29;20082;-68
2022/03/14 05:41:32;;;;;;;4.43;2.65;;;9.90;77.00;;;;;;4917578;29;20488;-69
2022/03/14 05:43:58;;;;;;;5.68;2.95;;;9.90;77.00;;;;;;4915450;29;20043;-69
2022/03/14 05:46:23;;;;;;;3.25;2.47;;;9.90;77.20;;;;;;4914260;29;20044;-69
2022/03/14 05:48:49;;;;;;;3.30;2.60;;;9.90;77.20;;;;;;4913922;29;20063;-68
2022/03/14 05:51:15;;;;;;;3.25;2.25;;;9.90;77.20;;;;;;4913223;29;20056;-68
2022/03/14 05:53:40;;;;;;;3.35;2.53;;;9.90;77.50;;;;;;4913826;29;20048;-68
2022/03/14 05:56:06;;;;;;;3.97;2.95;;;9.90;77.70;;;;;;4918111;29;20043;-68
2022/03/14 05:58:32;;;;;;;3.35;2.60;;;9.90;77.50;;;;;;4929479;29;20080;-68
2022/03/14 06:00:57;;;;;;;4.90;2.60;;;9.90;77.80;;;;;;4916913;29;20095;-68
2022/03/14 06:03:23;;;;;;;3.80;2.72;;;9.90;77.90;;;;;;4926195;29;20040;-68
2022/03/14 06:05:49;;;;;;;3.75;3.08;;;9.90;77.80;;;;;;4916071;29;20039;-69
2022/03/14 06:08:18;;;;;;;3.25;2.83;;;9.80;78.00;;;;;;4899679;29;20083;-68
2022/03/14 06:10:46;;;;;;;3.40;2.72;;;9.90;77.90;;;;;;4929598;29;20052;-68
2022/03/14 06:13:15;;;;;;;3.70;2.78;;;9.90;77.80;;;;;;4917559;29;20055;-68
2022/03/14 06:15:42;;;;;;;4.10;2.88;;;9.90;78.00;;;;;;4925568;29;20054;-68
2022/03/14 06:18:07;;;;;;;4.18;3.28;;;9.90;77.90;;;;;;4930384;29;20047;-68
2022/03/14 06:20:34;;;;;;;3.13;2.70;;;10.00;77.80;;;;;;4919008;29;20141;-68
2022/03/14 06:23:00;;;;;;;3.58;2.83;;;9.90;77.90;;;;;;4921269;29;20048;-68
2022/03/14 06:25:25;;;;;;;3.78;3.05;;;9.90;77.70;;;;;;4914611;29;20066;-68
2022/03/14 06:27:51;;;;;;;3.97;3.28;;;10.00;77.70;;;;;;4917996;29;20200;-68
2022/03/14 06:30:16;;;;;;;4.03;3.17;;;10.00;78.10;;;;;;4931058;29;20050;-67
2022/03/14 06:32:43;;;;;;;3.75;3.17;;;10.00;78.10;;;;;;4913205;29;20051;-67
2022/03/14 06:35:11;;;;;;;3.78;3.10;;;10.10;77.80;;;;;;4930660;29;20390;-67
2022/03/14 06:37:37;;;;;;;5.13;3.10;;;10.00;77.80;;;;;;4925743;29;20543;-68
2022/03/14 06:40:04;;;;;;;5.20;3.20;;;10.10;77.80;;;;;;4912559;29;20056;-69
2022/03/14 06:42:29;;;;;;;5.05;3.10;;;10.00;78.30;;;;;;4918940;29;20040;-69
2022/03/14 06:45:00;;;;;;;4.03;3.17;;;10.00;78.00;;;;;;4914719;29;20047;-69
2022/03/14 06:47:25;;;;;;;3.83;3.13;;;10.00;77.90;;;;;;4915680;29;20055;-69
2022/03/14 06:49:51;;;;;;;3.85;3.50;;;10.10;77.90;;;;;;4917647;29;20047;-70
2022/03/14 06:52:17;;;;;;;4.38;3.47;;;10.00;78.20;;;;;;4925265;29;20053;-69
2022/03/14 06:54:43;;;;;;;5.20;3.88;;;10.00;78.10;;;;;;4923318;29;20524;-69
2022/03/14 06:57:10;;;;;;;4.57;3.97;;;10.10;78.20;;;;;;4919430;29;20051;-69
2022/03/14 06:59:36;;;;;;;5.30;4.18;;;10.00;78.20;;;;;;4930290;29;20052;-69
2022/03/14 07:02:03;;;;;;;5.93;4.35;;;10.00;78.20;;;;;;4922282;29;20404;-68
2022/03/14 07:04:29;;;;;;;5.90;4.65;;;10.00;78.20;;;;;;4912411;29;20052;-69
2022/03/14 07:06:54;;;;;;;7.25;4.80;;;10.00;78.40;;;;;;4923985;29;20047;-69
2022/03/14 07:09:20;;;;;;;5.35;4.65;;;10.10;78.40;;;;;;4930557;29;20048;-69
2022/03/14 07:11:51;;;;;;;6.32;5.72;;;10.00;78.60;;;;;;4920412;29;20044;-69
2022/03/14 07:14:21;;;;;;;5.72;3.22;;;10.00;78.70;;;;;;4909923;29;20139;-69
2022/03/14 07:16:50;;;;;;;7.05;5.40;;;10.20;79.50;;;;;;4918048;29;20056;-69
2022/03/14 07:19:16;;;;;;;11.85;6.28;;;10.60;78.80;;;;;;4907972;29;20537;-68
2022/03/14 07:21:42;;;;;;;7.00;6.30;;;10.60;78.00;;;;;;4930654;29;20127;-69
2022/03/14 07:24:08;;;;;;;7.38;6.57;;;10.60;77.80;;;;;;4927847;29;20051;-69
2022/03/14 07:26:34;;;;;;;7.22;6.53;;;10.50;77.90;;;;;;4929087;29;20448;-69
2022/03/14 07:29:00;;;;;;;7.70;6.95;;;10.40;78.10;;;;;;4933825;29;20516;-68
2022/03/14 07:31:26;;;;;;;8.02;7.22;;;10.40;78.40;;;;;;4932955;29;20087;-68
2022/03/14 07:33:51;;;;;;;8.70;7.80;;;10.30;78.70;;;;;;4934230;29;20043;-69
2022/03/14 07:36:18;;;;;;;9.10;8.15;;;10.20;78.80;;;;;;4924708;29;20123;-68
2022/03/14 07:38:44;;;;;;;9.68;8.68;;;10.20;79.60;;;;;;4918433;29;20044;-69
2022/03/14 07:41:10;;;;;;;9.52;7.63;;;10.20;79.80;;;;;;4927455;29;20083;-69
2022/03/14 07:43:37;;;;;;;8.88;8.00;;;10.30;79.50;;;;;;4930640;29;20050;-68
2022/03/14 07:46:02;;;;;;;9.98;8.95;;;10.30;79.60;;;;;;4928835;29;20052;-68
2022/03/14 07:48:28;;;;;;;10.32;9.18;;;10.30;79.80;;;;;;4914258;29;20063;-69
2022/03/14 07:50:55;;;;;;;9.23;8.32;;;10.20;79.80;;;;;;4918438;29;20056;-69
2022/03/14 07:53:21;;;;;;;10.35;9.32;;;10.20;80.40;;;;;;4922108;29;20497;-69
2022/03/14 07:55:46;;;;;;;11.73;10.52;;;10.10;81.00;;;;;;4928121;29;20099;-69
2022/03/14 07:58:12;;;;;;;12.88;11.52;;;10.10;80.70;;;;;;4923041;29;20051;-69
2022/03/14 08:00:38;;;;;;;16.25;12.15;;;10.10;81.50;;;;;;4931853;29;20043;-69
2022/03/14 08:03:04;;;;;;;12.80;11.60;;;10.10;81.40;;;;;;4927445;29;20080;-70
2022/03/14 08:05:29;;;;;;;14.93;13.35;;;10.00;81.40;;;;;;4923377;29;20408;-69
2022/03/14 08:07:55;;;;;;;17.70;15.90;;;9.90;82.20;;;;;;4916820;29;20052;-68
2022/03/14 08:10:22;;;;;;;16.85;14.98;;;9.90;82.40;;;;;;4930950;29;20536;-70
2022/03/14 08:12:50;;;;;;;17.83;15.90;;;9.80;82.60;;;;;;4904468;29;20486;-67
2022/03/14 08:15:41;;;;;;;17.50;15.80;;;9.70;83.70;;;;;;4916407;29;20574;-69
2022/03/14 08:18:09;;;;;;;18.08;16.27;;;9.70;83.70;;;;;;4932403;29;20058;-69
2022/03/14 08:20:37;;;;;;;18.02;16.23;;;9.60;84.30;;;;;;4932802;29;20054;-69
2022/03/14 08:23:04;;;;;;;20.88;17.42;;;9.60;84.80;;;;;;4932993;29;20044;-69
2022/03/14 08:25:31;;;;;;;19.80;17.20;;;9.60;84.80;;;;;;4929760;29;20055;-69
2022/03/14 08:27:57;;;;;;;19.92;17.85;;;9.60;84.50;;;;;;4910434;29;20036;-68
2022/03/14 08:30:23;;;;;;;20.13;18.05;;;9.70;84.70;;;;;;4929536;29;20055;-70
2022/03/14 08:32:50;;;;;;;24.77;20.38;;;9.60;85.70;;;;;;4919018;29;20148;-73
2022/03/14 08:35:19;;;;;;;24.00;21.05;;;9.60;86.40;;;;;;4915258;29;20048;-73
2022/03/14 08:37:45;;;;;;;24.23;20.30;;;9.60;86.00;;;;;;4915687;29;20052;-74
2022/03/14 08:40:14;;;;;;;24.42;20.92;;;9.60;85.80;;;;;;4927053;29;20047;-73
2022/03/14 08:42:41;;;;;;;28.98;24.02;;;9.60;85.90;;;;;;4926377;29;20040;-72
2022/03/14 08:45:08;;;;;;;31.83;25.42;;;9.50;86.30;;;;;;4922758;29;20059;-72
2022/03/14 08:47:34;;;;;;;31.88;25.50;;;9.50;86.80;;;;;;4928166;28;20083;-72
2022/03/14 08:50:02;;;;;;;32.63;25.85;;;9.50;86.70;;;;;;4921149;29;20043;-71
2022/03/14 08:52:29;;;;;;;32.90;26.77;;;9.50;86.60;;;;;;4922316;29;20059;-73
2022/03/14 08:54:55;;;;;;;34.80;27.95;;;9.50;86.80;;;;;;4917992;29;20048;-72
2022/03/14 08:57:21;;;;;;;38.47;27.77;;;9.40;87.20;;;;;;4915289;29;20047;-72
2022/03/14 08:59:46;;;;;;;34.90;26.70;;;9.30;87.60;;;;;;4913931;29;20036;-72
2022/03/14 09:02:12;;;;;;;33.47;25.02;;;9.30;87.70;;;;;;4920782;29;20456;-69
2022/03/14 09:04:38;;;;;;;33.97;23.52;;;9.30;87.90;;;;;;4927010;29;20139;-70
2022/03/14 09:07:04;;;;;;;33.58;23.15;;;9.30;87.80;;;;;;4926666;29;20075;-69
2022/03/14 09:09:29;;;;;;;29.90;20.85;;;9.30;88.10;;;;;;4924823;29;20040;-70
2022/03/14 09:11:55;;;;;;;27.83;20.38;;;9.30;87.50;;;;;;4931024;29;20378;-71
2022/03/14 09:14:21;;;;;;;29.15;21.08;;;9.20;87.50;;;;;;4930125;29;20124;-70
2022/03/14 09:16:47;;;;;;;29.83;19.90;;;9.20;87.60;;;;;;4929866;29;20043;-70
2022/03/14 09:19:13;;;;;;;27.05;16.77;;;9.30;87.30;;;;;;4915551;29;20048;-70
2022/03/14 09:21:39;;;;;;;23.92;17.42;;;9.40;87.00;;;;;;4932240;29;20059;-70
2022/03/14 09:24:05;;;;;;;26.77;17.20;;;9.40;86.90;;;;;;4931706;29;20079;-71
2022/03/14 09:26:32;;;;;;;23.23;14.98;;;9.40;87.00;;;;;;4925347;29;20052;-71
2022/03/14 09:28:59;;;;;;;22.00;14.25;;;9.40;86.60;;;;;;4920253;29;20120;-71
2022/03/14 09:31:25;;;;;;;29.33;13.63;;;9.50;86.00;;;;;;4923801;29;20044;-71
2022/03/14 09:33:51;;;;;;;21.08;13.05;;;9.60;85.90;;;;;;4932608;29;20102;-71
2022/03/14 09:36:17;;;;;;;21.85;11.85;;;9.60;85.50;;;;;;4926989;29;20096;-71
2022/03/14 09:38:43;;;;;;;19.85;12.10;;;9.60;85.10;;;;;;4942568;29;20082;-71
2022/03/14 09:41:09;;;;;;;20.45;11.52;;;9.60;85.10;;;;;;4921293;29;20057;-71
2022/03/14 09:43:40;;;;;;;16.60;9.93;;;9.60;84.70;;;;;;4927375;29;20052;-71
2022/03/14 09:46:07;;;;;;;20.30;9.25;;;9.70;84.30;;;;;;4919274;29;20659;-72
2022/03/14 09:48:36;;;;;;;18.73;9.00;;;9.80;83.90;;;;;;4919907;29;20614;-71
2022/03/14 09:51:04;;;;;;;21.20;8.57;;;9.80;83.80;;;;;;4922675;29;20046;-71
2022/03/14 09:53:30;;;;;;;15.38;8.80;;;9.90;83.70;;;;;;4920425;29;20501;-72
2022/03/14 09:55:56;;;;;;;15.18;8.88;;;10.20;83.70;;;;;;4913428;29;20044;-72
2022/03/14 09:58:22;;;;;;;12.45;7.93;;;10.20;82.70;;;;;;4925869;29;20058;-73
2022/03/14 10:00:48;;;;;;;15.40;7.30;;;10.20;82.40;;;;;;4925547;29;20052;-71
2022/03/14 10:03:16;;;;;;;12.15;7.00;;;10.20;82.20;;;;;;4913086;29;20746;-71
2022/03/14 10:05:44;;;;;;;15.90;7.90;;;10.20;81.90;;;;;;4912976;29;20512;-72
2022/03/14 10:08:10;;;;;;;18.30;7.55;;;10.10;81.70;;;;;;4923711;29;20504;-71
2022/03/14 10:10:39;;;;;;;18.15;8.93;;;10.10;82.00;;;;;;4903222;29;20504;-71
2022/03/14 10:13:06;;;;;;;14.50;8.15;;;10.10;82.20;;;;;;4928392;29;20127;-73
2022/03/14 10:15:34;;;;;;;17.38;9.02;;;10.10;82.20;;;;;;4926767;29;20465;-73
2022/03/14 10:17:59;;;;;;;14.98;8.85;;;10.10;82.20;;;;;;4931731;29;20048;-72
2022/03/14 10:20:25;;;;;;;14.23;8.60;;;10.10;82.10;;;;;;4924453;29;20111;-72
2022/03/14 10:22:51;;;;;;;15.10;10.27;;;10.20;82.30;;;;;;4919265;29;20131;-72
2022/03/14 10:25:21;;;;;;;16.58;8.85;;;10.10;82.20;;;;;;4912741;29;20048;-70
2022/03/14 10:27:57;;;;;;;18.10;9.57;;;10.10;82.60;;;;;;4920100;29;20075;-72
2022/03/14 10:30:33;;;;;;;22.35;10.43;;;10.10;82.70;;;;;;4931748;29;20056;-71
2022/03/14 10:33:08;;;;;;;18.63;11.05;;;10.10;82.50;;;;;;4946976;29;20043;-71
2022/03/14 10:35:38;;;;;;;17.70;10.38;;;10.20;82.80;;;;;;4935076;29;20048;-72
2022/03/14 10:38:07;;;;;;;18.15;11.20;;;10.20;82.80;;;;;;4930718;29;20169;-71
2022/03/14 10:40:44;;;;;;;19.55;11.27;;;10.20;82.90;;;;;;4931506;29;20047;-73
2022/03/14 10:43:28;;;;;;;16.02;11.13;;;10.20;82.90;;;;;;4931838;29;20126;-71
2022/03/14 10:45:55;;;;;;;23.60;11.55;;;10.30;82.80;;;;;;4930594;29;20056;-70
2022/03/14 10:48:40;;;;;;;18.75;11.65;;;10.30;82.90;;;;;;4916379;29;20051;-72
2022/03/14 10:51:08;;;;;;;21.30;11.90;;;10.30;82.70;;;;;;4928193;29;20467;-73
2022/03/14 10:53:40;;;;;;;20.80;11.73;;;10.30;82.80;;;;;;4931699;29;20054;-72
2022/03/14 10:56:06;;;;;;;22.05;12.75;;;10.30;82.70;;;;;;4915295;29;20052;-71
2022/03/14 10:58:33;;;;;;;23.40;12.82;;;10.30;82.80;;;;;;4911227;29;20070;-70
2022/03/14 11:01:12;;;;;;;22.50;12.95;;;10.30;82.80;;;;;;4921440;29;20091;-70
2022/03/14 11:03:40;;;;;;;21.15;13.38;;;10.30;83.00;;;;;;4918020;29;20075;-69
2022/03/14 11:06:13;;;;;;;22.50;13.95;;;10.30;82.80;;;;;;4935198;29;20126;-74
2022/03/14 11:08:40;;;;;;;25.10;14.48;;;10.40;82.90;;;;;;4934246;29;20180;-72
2022/03/14 11:11:11;;;;;;;24.67;14.73;;;10.40;83.00;;;;;;4933210;29;20142;-72
2022/03/14 11:13:45;;;;;;;27.42;14.68;;;10.40;82.90;;;;;;4900523;29;20120;-71
2022/03/14 11:16:26;;;;;;;26.88;14.18;;;10.50;82.60;;;;;;4918143;29;20433;-68
2022/03/14 11:18:52;;;;;;;26.10;15.50;;;10.50;82.30;;;;;;4926375;29;20052;-67
2022/03/14 11:21:20;;;;;;;28.88;16.58;;;10.50;82.50;;;;;;4935289;29;20043;-68
2022/03/14 11:23:48;;;;;;;29.50;15.02;;;10.60;82.40;;;;;;4919867;29;20044;-68
2022/03/14 11:26:16;;;;;;;22.65;14.25;;;10.60;82.40;;;;;;4920339;29;20052;-68
2022/03/14 11:28:46;;;;;;;20.77;13.35;;;10.60;82.30;;;;;;4916976;29;20043;-68
2022/03/14 11:31:12;;;;;;;31.25;15.55;;;10.60;81.90;;;;;;4928510;29;20044;-68
2022/03/14 11:33:38;;;;;;;27.63;14.40;;;10.60;81.70;;;;;;4934504;29;20055;-69
2022/03/14 11:36:05;;;;;;;24.15;15.45;;;10.60;81.80;;;;;;4934329;29;20110;-68
2022/03/14 11:38:31;;;;;;;26.63;14.15;;;10.60;81.80;;;;;;4934192;29;20118;-69
2022/03/14 11:40:58;;;;;;;20.83;13.50;;;10.60;82.00;;;;;;4933939;29;20085;-67
2022/03/14 11:43:25;;;;;;;25.50;14.32;;;10.70;81.60;;;;;;4932175;28;20047;-70
2022/03/14 11:45:52;;;;;;;25.85;14.93;;;10.70;81.40;;;;;;4941895;29;20048;-69
2022/03/14 11:48:19;;;;;;;23.15;13.95;;;10.70;81.30;;;;;;4925594;29;20126;-69
2022/03/14 11:50:46;;;;;;;21.20;12.90;;;10.80;81.20;;;;;;4924408;29;20052;-68
2022/03/14 11:53:23;;;;;;;25.45;14.15;;;10.80;80.90;;;;;;4928376;29;20131;-69
2022/03/14 11:56:07;;;;;;;22.20;13.77;;;10.80;81.00;;;;;;4910272;29;20095;-69
2022/03/14 11:58:34;;;;;;;28.30;14.32;;;10.80;81.10;;;;;;4925740;29;21364;-70
2022/03/14 12:01:28;;;;;;;26.00;13.55;;;10.80;81.00;;;;;;4932438;29;20800;-69
2022/03/14 12:03:59;;;;;;;29.55;14.27;;;10.80;81.00;;;;;;4925198;29;20086;-69
2022/03/14 12:06:46;;;;;;;24.38;13.55;;;10.80;81.50;;;;;;4916989;29;20048;-69
2022/03/14 12:09:23;;;;;;;25.00;13.45;;;11.00;81.20;;;;;;4913262;29;20528;-69
2022/03/14 12:11:49;;;;;;;23.88;13.32;;;11.10;80.80;;;;;;4924539;29;20091;-68
2022/03/14 12:14:45;;;;;;;18.40;11.65;;;11.10;80.50;;;;;;4931217;29;20043;-69
2022/03/14 12:17:13;;;;;;;22.85;12.10;;;11.30;79.20;;;;;;4916859;29;20058;-69
2022/03/14 12:19:54;;;;;;;20.05;11.35;;;11.30;79.20;;;;;;4935898;28;20047;-68
2022/03/14 12:22:43;;;;;;;22.02;12.60;;;11.40;78.30;;;;;;4931207;29;20047;-69
2022/03/14 12:25:30;;;;;;;22.48;11.13;;;11.40;77.90;;;;;;4919975;29;20051;-68
2022/03/14 12:27:55;;;;;;;17.83;10.00;;;11.40;77.30;;;;;;4915511;29;20070;-68
2022/03/14 12:30:25;;;;;;;23.08;11.75;;;11.50;77.10;;;;;;4930921;29;20063;-69
2022/03/14 12:32:55;;;;;;;20.60;11.15;;;11.40;77.60;;;;;;4931320;29;20253;-68
2022/03/14 12:35:25;;;;;;;20.20;11.98;;;11.50;77.50;;;;;;4932149;29;20048;-69
2022/03/14 12:37:55;;;;;;;15.50;10.25;;;11.50;77.20;;;;;;4920720;29;20123;-68
2022/03/14 12:40:21;;;;;;;21.23;10.35;;;11.50;77.10;;;;;;4922906;29;20412;-68